Time;durP1;ratioP1;P1;durP2;ratioP2;P2;SDS_P1;SDS_P2;PMS_P1;PMS_P2;Temp;Humidity;BMP_temperature;BMP_pressure;BME280_temperature;BME280_humidity;BME280_pressure;Samples;Min_cycle;Max_cycle;Signal;HPM_P1;HPM_P2
2024/02/18 00:00:42;;;;;;;13.18;5.60;;;1.80;99.90;;;;;;5043714;28;20028;-84
2024/02/18 00:03:08;;;;;;;17.05;6.60;;;1.80;99.90;;;;;;5056339;28;20047;-83
2024/02/18 00:05:35;;;;;;;9.98;5.63;;;1.80;99.90;;;;;;5040274;28;20025;-84
2024/02/18 00:08:01;;;;;;;13.18;6.22;;;1.80;99.90;;;;;;5044643;28;20697;-84
2024/02/18 00:10:26;;;;;;;10.57;4.97;;;1.80;99.90;;;;;;5053660;28;20081;-83
2024/02/18 00:12:52;;;;;;;14.80;6.30;;;1.80;99.90;;;;;;5037245;28;20057;-83
2024/02/18 00:15:17;;;;;;;8.70;5.50;;;1.80;99.90;;;;;;5037847;28;20706;-82
2024/02/18 00:17:43;;;;;;;12.32;5.85;;;1.80;99.90;;;;;;5055497;28;20079;-83
2024/02/18 00:20:15;;;;;;;12.32;5.43;;;1.80;99.90;;;;;;5056579;28;20029;-82
2024/02/18 00:22:41;;;;;;;9.65;5.18;;;1.80;99.90;;;;;;5037453;28;20021;-83
2024/02/18 00:25:07;;;;;;;18.42;6.10;;;1.90;99.90;;;;;;5054154;28;20386;-83
2024/02/18 00:27:33;;;;;;;13.25;5.70;;;1.80;99.90;;;;;;5032807;28;20033;-83
2024/02/18 00:29:59;;;;;;;8.95;5.15;;;1.80;99.90;;;;;;5039405;28;20420;-83
2024/02/18 00:32:24;;;;;;;11.35;4.75;;;1.90;99.90;;;;;;5039876;28;20037;-83
2024/02/18 00:34:50;;;;;;;14.57;6.20;;;1.90;99.90;;;;;;5034707;28;20146;-82
2024/02/18 00:37:17;;;;;;;12.32;4.80;;;1.90;99.90;;;;;;5033191;28;20036;-84
2024/02/18 00:39:43;;;;;;;11.90;5.35;;;1.90;99.90;;;;;;5037589;28;20167;-84
2024/02/18 00:42:10;;;;;;;15.88;5.47;;;1.90;99.90;;;;;;5039762;28;20115;-83
2024/02/18 00:44:36;;;;;;;12.43;5.35;;;2.00;99.90;;;;;;5036214;28;20132;-85
2024/02/18 00:47:01;;;;;;;9.90;5.07;;;2.00;99.90;;;;;;5036471;28;20056;-83
2024/02/18 00:49:27;;;;;;;8.95;5.45;;;2.10;99.90;;;;;;5036362;28;20519;-83
2024/02/18 00:51:52;;;;;;;14.20;6.00;;;2.10;99.90;;;;;;5032454;28;20063;-84
2024/02/18 00:54:18;;;;;;;11.02;5.20;;;2.10;99.90;;;;;;5053912;28;20500;-82
2024/02/18 00:56:46;;;;;;;12.27;4.63;;;2.10;99.90;;;;;;5053873;28;20044;-83
2024/02/18 00:59:12;;;;;;;14.20;5.95;;;2.20;99.90;;;;;;5040795;28;20520;-85
2024/02/18 01:01:38;;;;;;;16.83;4.90;;;2.20;99.90;;;;;;5037161;28;20017;-84
2024/02/18 01:04:03;;;;;;;10.40;4.68;;;2.20;99.90;;;;;;5037834;28;20051;-84
2024/02/18 01:06:29;;;;;;;12.13;5.25;;;2.20;99.90;;;;;;5039667;28;20032;-85
2024/02/18 01:08:55;;;;;;;10.10;4.30;;;2.30;99.90;;;;;;5056011;28;20128;-84
2024/02/18 01:11:20;;;;;;;12.95;4.53;;;2.30;99.90;;;;;;5037458;28;20060;-83
2024/02/18 01:13:46;;;;;;;8.45;4.50;;;2.40;99.90;;;;;;5037925;28;20039;-85
2024/02/18 01:16:12;;;;;;;13.18;5.25;;;2.40;99.90;;;;;;5035253;28;20066;-83
2024/02/18 01:18:42;;;;;;;10.63;5.00;;;2.40;99.90;;;;;;5040635;28;20087;-83
2024/02/18 01:21:08;;;;;;;12.98;5.18;;;2.40;99.90;;;;;;5054813;28;20044;-84
2024/02/18 01:23:33;;;;;;;8.10;3.67;;;2.40;99.90;;;;;;5037216;28;20029;-85
2024/02/18 01:25:59;;;;;;;7.70;4.30;;;2.50;99.90;;;;;;5039510;28;20507;-84
2024/02/18 01:28:25;;;;;;;11.88;4.63;;;2.50;99.90;;;;;;5036162;28;20032;-83
2024/02/18 01:30:51;;;;;;;10.35;4.68;;;2.50;99.90;;;;;;5055284;28;20021;-84
2024/02/18 01:33:17;;;;;;;16.02;4.32;;;2.50;99.90;;;;;;5038651;28;20032;-84
2024/02/18 01:35:42;;;;;;;11.73;5.07;;;2.50;99.90;;;;;;5049206;28;20029;-84
2024/02/18 01:38:09;;;;;;;13.20;4.63;;;2.50;99.90;;;;;;5053829;28;20037;-85
2024/02/18 01:40:35;;;;;;;11.63;4.68;;;2.60;99.90;;;;;;5036021;28;20071;-83
2024/02/18 01:43:02;;;;;;;14.27;4.50;;;2.50;99.90;;;;;;5052170;28;20029;-83
2024/02/18 01:45:28;;;;;;;15.05;4.55;;;2.50;99.90;;;;;;5050100;28;20025;-84
2024/02/18 01:47:53;;;;;;;8.13;4.15;;;2.60;99.90;;;;;;5055243;28;20054;-84
2024/02/18 01:50:19;;;;;;;8.75;3.85;;;2.50;99.90;;;;;;5036230;28;20485;-84
2024/02/18 01:52:46;;;;;;;11.05;4.00;;;2.50;99.90;;;;;;5051976;28;20029;-83
2024/02/18 01:55:14;;;;;;;11.80;4.70;;;2.60;99.90;;;;;;5037212;28;20036;-83
2024/02/18 01:57:41;;;;;;;11.25;3.83;;;2.50;99.90;;;;;;5034402;28;20393;-84
2024/02/18 02:00:12;;;;;;;7.25;3.80;;;2.60;99.90;;;;;;5037051;28;20024;-84
2024/02/18 02:02:45;;;;;;;10.23;3.95;;;2.60;99.90;;;;;;5035277;28;20112;-83
2024/02/18 02:05:18;;;;;;;10.25;4.15;;;2.60;99.90;;;;;;5048871;28;20509;-84
2024/02/18 02:07:44;;;;;;;11.57;3.63;;;2.70;99.90;;;;;;5040052;28;20013;-83
2024/02/18 02:10:12;;;;;;;12.00;3.83;;;2.70;99.90;;;;;;5041007;28;20029;-83
2024/02/18 02:12:44;;;;;;;14.05;4.38;;;2.70;99.90;;;;;;5038316;28;20068;-83
2024/02/18 02:15:10;;;;;;;9.10;3.80;;;2.80;99.90;;;;;;5036691;28;20044;-85
2024/02/18 02:17:39;;;;;;;12.48;3.63;;;2.80;99.90;;;;;;5039948;28;20032;-84
2024/02/18 02:20:07;;;;;;;11.38;3.50;;;2.80;99.90;;;;;;5053779;28;20025;-83
2024/02/18 02:22:33;;;;;;;5.10;3.25;;;2.80;99.90;;;;;;5041077;28;20564;-82
2024/02/18 02:24:58;;;;;;;10.68;3.63;;;2.80;99.90;;;;;;5040900;28;20024;-84
2024/02/18 02:27:32;;;;;;;7.63;3.15;;;2.80;99.90;;;;;;5040505;28;20024;-84
2024/02/18 02:29:58;;;;;;;11.82;3.65;;;2.80;99.90;;;;;;5067726;23;20044;-62
2024/02/18 02:32:24;;;;;;;8.30;3.45;;;2.90;99.90;;;;;;5044729;28;20189;-62
2024/02/18 02:34:49;;;;;;;8.45;3.35;;;2.90;99.90;;;;;;5044934;28;20021;-64
2024/02/18 02:37:16;;;;;;;10.30;3.08;;;2.90;99.90;;;;;;5045652;28;20050;-62
2024/02/18 02:39:42;;;;;;;11.57;4.90;;;2.90;99.90;;;;;;5056271;28;20360;-62
2024/02/18 02:42:09;;;;;;;8.63;3.40;;;3.00;99.90;;;;;;5062459;28;20499;-64
2024/02/18 02:44:35;;;;;;;10.05;3.45;;;2.90;99.90;;;;;;5063157;28;20452;-64
2024/02/18 02:47:01;;;;;;;8.27;3.50;;;2.90;99.90;;;;;;5061158;28;20127;-64
2024/02/18 02:49:26;;;;;;;9.32;3.63;;;2.90;99.90;;;;;;5063346;28;20021;-62
2024/02/18 02:51:52;;;;;;;8.40;3.10;;;3.00;99.90;;;;;;5062006;28;20018;-62
2024/02/18 02:54:17;;;;;;;10.45;3.13;;;3.00;99.90;;;;;;5056311;28;20021;-63
2024/02/18 02:56:43;;;;;;;6.25;3.00;;;3.00;99.90;;;;;;5060575;28;20127;-62
2024/02/18 02:59:08;;;;;;;8.82;3.53;;;3.00;99.90;;;;;;5061760;28;20508;-63
2024/02/18 03:01:34;;;;;;;9.35;3.13;;;3.10;99.90;;;;;;5061019;28;20629;-63
2024/02/18 03:04:04;;;;;;;6.53;3.03;;;3.10;99.90;;;;;;5062564;28;20024;-63
2024/02/18 03:06:32;;;;;;;4.53;2.25;;;3.10;99.90;;;;;;5060140;28;20111;-63
2024/02/18 03:08:57;;;;;;;8.25;2.50;;;3.10;99.90;;;;;;5059063;28;20035;-63
2024/02/18 03:11:23;;;;;;;8.80;2.78;;;3.10;99.90;;;;;;5060588;28;20024;-63
2024/02/18 03:13:49;;;;;;;6.13;2.50;;;3.10;99.90;;;;;;5063704;28;20246;-63
2024/02/18 03:16:14;;;;;;;6.13;2.47;;;3.10;99.90;;;;;;5061938;28;20017;-63
2024/02/18 03:18:43;;;;;;;5.93;2.47;;;3.10;99.90;;;;;;5063183;28;20027;-64
2024/02/18 03:21:09;;;;;;;8.30;2.40;;;3.10;99.90;;;;;;5061534;28;20109;-63
2024/02/18 03:23:38;;;;;;;8.48;2.50;;;3.20;99.90;;;;;;5061029;28;20084;-63
2024/02/18 03:26:04;;;;;;;6.60;2.30;;;3.20;99.90;;;;;;5064836;28;20162;-63
2024/02/18 03:28:29;;;;;;;7.65;1.73;;;3.20;99.90;;;;;;5060434;28;20082;-63
2024/02/18 03:30:55;;;;;;;7.72;2.95;;;3.20;99.90;;;;;;5061121;28;20412;-63
2024/02/18 03:33:20;;;;;;;4.72;2.15;;;3.30;99.90;;;;;;5062727;28;20029;-63
2024/02/18 03:35:46;;;;;;;5.57;2.10;;;3.30;99.90;;;;;;5064403;28;20025;-63
2024/02/18 03:38:12;;;;;;;9.48;2.40;;;3.30;99.90;;;;;;5061827;28;20484;-63
2024/02/18 03:40:39;;;;;;;5.57;2.00;;;3.30;99.90;;;;;;5060463;28;20036;-63
2024/02/18 03:43:05;;;;;;;11.55;2.15;;;3.40;99.90;;;;;;5061636;28;20435;-63
2024/02/18 03:45:30;;;;;;;8.98;2.55;;;3.40;99.90;;;;;;5058284;28;20028;-62
2024/02/18 03:47:56;;;;;;;10.57;2.38;;;3.40;99.90;;;;;;5063456;28;20020;-63
2024/02/18 03:50:22;;;;;;;9.52;2.00;;;3.40;99.90;;;;;;5061305;28;20020;-63
2024/02/18 03:52:48;;;;;;;6.65;1.88;;;3.40;99.90;;;;;;5064181;28;20020;-63
2024/02/18 03:55:14;;;;;;;7.82;2.40;;;3.50;99.90;;;;;;5064656;28;20035;-63
2024/02/18 03:57:41;;;;;;;6.13;2.08;;;3.50;99.90;;;;;;5064938;28;20079;-63
2024/02/18 04:00:09;;;;;;;11.45;2.03;;;3.50;99.90;;;;;;5061610;28;20094;-64
2024/02/18 04:02:39;;;;;;;5.30;2.30;;;3.50;99.90;;;;;;5062912;28;20074;-63
2024/02/18 04:05:06;;;;;;;6.03;1.58;;;3.60;99.90;;;;;;5062942;28;20074;-63
2024/02/18 04:07:33;;;;;;;5.80;2.00;;;3.50;99.90;;;;;;5056170;28;20550;-63
2024/02/18 04:09:58;;;;;;;9.43;1.98;;;3.60;99.90;;;;;;5064172;28;20020;-63
2024/02/18 04:12:24;;;;;;;9.18;2.63;;;3.60;99.90;;;;;;5061373;28;20090;-64
2024/02/18 04:14:52;;;;;;;6.10;2.35;;;3.60;99.90;;;;;;5064142;28;20036;-63
2024/02/18 04:17:18;;;;;;;4.93;1.77;;;3.60;99.90;;;;;;5061033;28;20032;-64
2024/02/18 04:19:43;;;;;;;4.75;2.00;;;3.60;99.90;;;;;;5060552;28;20378;-63
2024/02/18 04:22:09;;;;;;;4.00;2.05;;;3.70;99.90;;;;;;5060760;28;20025;-63
2024/02/18 04:24:34;;;;;;;8.35;1.92;;;3.70;99.90;;;;;;5060419;28;20035;-63
2024/02/18 04:27:00;;;;;;;5.05;2.28;;;3.70;99.90;;;;;;5061415;28;20020;-63
2024/02/18 04:29:27;;;;;;;7.38;1.42;;;3.70;99.90;;;;;;5060808;28;20112;-63
2024/02/18 04:31:52;;;;;;;7.78;2.58;;;3.70;99.90;;;;;;5062040;28;20020;-63
2024/02/18 04:34:18;;;;;;;9.10;2.42;;;3.70;99.90;;;;;;5062546;28;20024;-63
2024/02/18 04:36:47;;;;;;;6.57;2.45;;;3.70;99.90;;;;;;5060852;28;20635;-63
2024/02/18 04:39:12;;;;;;;11.23;2.97;;;3.70;99.90;;;;;;5061132;28;20033;-63
2024/02/18 04:41:38;;;;;;;5.40;2.70;;;3.70;99.90;;;;;;5060041;28;20181;-63
2024/02/18 04:44:03;;;;;;;5.43;2.40;;;3.80;99.90;;;;;;5060396;28;20032;-63
2024/02/18 04:46:29;;;;;;;6.10;2.45;;;3.80;99.90;;;;;;5059677;28;20024;-63
2024/02/18 04:48:56;;;;;;;10.25;2.80;;;3.80;99.90;;;;;;5061645;28;20025;-63
2024/02/18 04:51:22;;;;;;;6.32;2.45;;;3.80;99.90;;;;;;5058850;28;20674;-64
2024/02/18 04:53:47;;;;;;;7.97;2.75;;;3.80;99.90;;;;;;5055637;28;20029;-63
2024/02/18 04:56:13;;;;;;;7.57;3.17;;;3.80;99.90;;;;;;5062517;28;20054;-63
2024/02/18 04:58:38;;;;;;;6.38;3.03;;;3.80;99.90;;;;;;5060682;28;20035;-63
2024/02/18 05:01:04;;;;;;;5.65;2.78;;;3.80;99.90;;;;;;5062723;28;20484;-63
2024/02/18 05:03:29;;;;;;;5.80;3.17;;;3.90;99.90;;;;;;5062970;28;20789;-64
2024/02/18 05:05:55;;;;;;;10.32;3.67;;;3.90;99.90;;;;;;5061582;28;20066;-63
2024/02/18 05:08:21;;;;;;;7.22;3.72;;;3.90;99.90;;;;;;5062893;28;20115;-63
2024/02/18 05:10:46;;;;;;;7.90;4.10;;;3.90;99.90;;;;;;5061684;28;20520;-63
2024/02/18 05:13:12;;;;;;;15.07;4.78;;;3.90;99.90;;;;;;5061039;28;20032;-63
2024/02/18 05:15:37;;;;;;;11.98;5.80;;;4.00;99.90;;;;;;5060417;28;20047;-63
2024/02/18 05:18:04;;;;;;;18.33;6.60;;;4.00;99.90;;;;;;5063250;28;20032;-63
2024/02/18 05:20:29;;;;;;;10.02;5.55;;;4.00;99.90;;;;;;5060335;28;20024;-63
2024/02/18 05:22:55;;;;;;;14.00;6.43;;;4.00;99.90;;;;;;5060025;28;20082;-63
2024/02/18 05:25:20;;;;;;;10.85;6.15;;;4.10;99.90;;;;;;5062646;28;20073;-64
2024/02/18 05:27:46;;;;;;;15.40;6.82;;;4.10;99.90;;;;;;5060938;28;20037;-63
2024/02/18 05:30:12;;;;;;;14.90;6.95;;;4.10;99.90;;;;;;5062137;28;20044;-63
2024/02/18 05:32:38;;;;;;;19.08;6.80;;;4.10;99.90;;;;;;5059294;28;20024;-63
2024/02/18 05:35:04;;;;;;;19.65;7.60;;;4.10;99.90;;;;;;5060372;28;20039;-64
2024/02/18 05:37:30;;;;;;;14.88;7.97;;;4.20;99.90;;;;;;5056058;28;20028;-64
2024/02/18 05:39:56;;;;;;;20.98;9.23;;;4.20;99.90;;;;;;5056492;28;20463;-64
2024/02/18 05:42:21;;;;;;;19.08;8.23;;;4.20;99.90;;;;;;5060246;28;20033;-64
2024/02/18 05:44:47;;;;;;;21.50;9.60;;;4.20;99.90;;;;;;5061714;28;20654;-63
2024/02/18 05:47:12;;;;;;;20.60;9.90;;;4.30;99.90;;;;;;5059477;28;20454;-63
2024/02/18 05:49:38;;;;;;;21.13;10.13;;;4.30;99.90;;;;;;5058433;28;20027;-63
2024/02/18 05:52:04;;;;;;;23.23;9.27;;;4.30;99.90;;;;;;5060372;28;20044;-64
2024/02/18 05:54:30;;;;;;;16.67;8.57;;;4.30;99.90;;;;;;5061489;28;20198;-64
2024/02/18 05:56:55;;;;;;;18.02;9.23;;;4.30;99.90;;;;;;5059804;28;20095;-63
2024/02/18 05:59:21;;;;;;;14.75;7.88;;;4.30;99.90;;;;;;5060620;28;20032;-63
2024/02/18 06:01:46;;;;;;;16.02;8.13;;;4.30;99.90;;;;;;5058513;28;20027;-64
2024/02/18 06:04:12;;;;;;;16.35;7.95;;;4.30;99.90;;;;;;5056787;28;20549;-63
2024/02/18 06:06:37;;;;;;;20.92;8.70;;;4.30;99.90;;;;;;5059935;28;20560;-63
2024/02/18 06:09:03;;;;;;;17.50;8.32;;;4.30;99.90;;;;;;5061489;28;20050;-63
2024/02/18 06:11:28;;;;;;;15.85;8.55;;;4.30;99.90;;;;;;5058272;28;20046;-63
2024/02/18 06:13:54;;;;;;;20.10;8.90;;;4.30;99.90;;;;;;5060002;28;20043;-64
2024/02/18 06:16:20;;;;;;;25.15;9.88;;;4.40;99.90;;;;;;5061395;28;20378;-64
2024/02/18 06:18:45;;;;;;;21.15;9.00;;;4.40;99.90;;;;;;5060942;28;20056;-64
2024/02/18 06:21:19;;;;;;;15.48;9.45;;;4.40;99.90;;;;;;5056415;28;20539;-64
2024/02/18 06:23:45;;;;;;;21.45;9.32;;;4.50;99.90;;;;;;5060282;28;20016;-63
2024/02/18 06:26:11;;;;;;;23.83;9.93;;;4.50;99.90;;;;;;5060103;28;20035;-64
2024/02/18 06:28:37;;;;;;;26.77;11.77;;;4.50;99.90;;;;;;5060918;28;20033;-65
2024/02/18 06:31:03;;;;;;;26.20;12.57;;;4.60;99.90;;;;;;5058149;28;20624;-64
2024/02/18 06:33:29;;;;;;;25.23;10.48;;;4.60;99.90;;;;;;5061024;28;20037;-64
2024/02/18 06:35:55;;;;;;;22.00;11.10;;;4.60;99.90;;;;;;5060362;28;20024;-64
2024/02/18 06:38:20;;;;;;;21.13;11.25;;;4.70;99.90;;;;;;5060137;28;20032;-65
2024/02/18 06:40:46;;;;;;;23.20;12.23;;;4.70;99.90;;;;;;5058964;28;20519;-65
2024/02/18 06:43:11;;;;;;;26.45;12.63;;;4.70;99.90;;;;;;5059104;28;20060;-64
2024/02/18 06:45:37;;;;;;;26.73;11.20;;;4.70;99.90;;;;;;5059981;28;20028;-65
2024/02/18 06:48:03;;;;;;;25.23;12.80;;;4.70;99.90;;;;;;5058904;28;20049;-64
2024/02/18 06:50:28;;;;;;;25.70;11.75;;;4.80;99.90;;;;;;5055962;28;20029;-64
2024/02/18 06:52:54;;;;;;;26.27;12.98;;;4.80;99.90;;;;;;5061935;28;20027;-64
2024/02/18 06:55:19;;;;;;;24.60;12.75;;;4.80;99.90;;;;;;5058022;28;20115;-65
2024/02/18 06:57:45;;;;;;;27.05;13.40;;;4.80;99.90;;;;;;5054810;28;20021;-65
2024/02/18 07:00:11;;;;;;;28.55;13.10;;;4.80;99.90;;;;;;5059686;28;20033;-65
2024/02/18 07:02:37;;;;;;;32.35;13.93;;;4.80;99.90;;;;;;5059493;28;20032;-64
2024/02/18 07:05:06;;;;;;;30.15;12.57;;;4.90;99.90;;;;;;5059896;28;20074;-64
2024/02/18 07:07:33;;;;;;;25.05;13.02;;;4.90;99.90;;;;;;5063473;28;20038;-65
2024/02/18 07:09:58;;;;;;;28.05;13.82;;;4.90;99.90;;;;;;5076697;28;20021;-64
2024/02/18 07:12:23;;;;;;;24.83;14.23;;;4.90;99.90;;;;;;5062892;28;20039;-64
2024/02/18 07:14:49;;;;;;;26.98;13.85;;;4.90;99.90;;;;;;5062484;28;20036;-65
2024/02/18 07:17:19;;;;;;;30.75;15.20;;;5.00;99.90;;;;;;5064885;28;20056;-64
2024/02/18 07:19:46;;;;;;;25.10;13.57;;;5.00;99.90;;;;;;5065249;28;20078;-64
2024/02/18 07:22:13;;;;;;;23.77;13.02;;;5.00;99.90;;;;;;5063149;28;20443;-64
2024/02/18 07:24:40;;;;;;;31.23;13.73;;;5.00;99.90;;;;;;5062838;28;20108;-64
2024/02/18 07:27:05;;;;;;;28.77;13.93;;;5.00;99.90;;;;;;5060311;28;20575;-64
2024/02/18 07:29:31;;;;;;;29.17;13.60;;;5.10;99.90;;;;;;5061465;28;20040;-64
2024/02/18 07:31:56;;;;;;;28.55;14.63;;;5.10;99.90;;;;;;5062493;28;20028;-64
2024/02/18 07:34:22;;;;;;;25.00;12.80;;;5.10;99.90;;;;;;5064305;28;21205;-65
2024/02/18 07:36:48;;;;;;;28.75;13.13;;;5.20;99.90;;;;;;5065216;28;20032;-64
2024/02/18 07:39:13;;;;;;;27.33;14.23;;;5.20;99.90;;;;;;5063199;28;20028;-64
2024/02/18 07:41:39;;;;;;;22.67;13.20;;;5.20;99.90;;;;;;5065168;28;20511;-65
2024/02/18 07:44:05;;;;;;;21.63;13.38;;;5.20;99.90;;;;;;5063464;28;20020;-65
2024/02/18 07:46:31;;;;;;;25.40;13.48;;;5.20;99.90;;;;;;5062746;28;20020;-65
2024/02/18 07:48:56;;;;;;;22.20;12.65;;;5.20;99.90;;;;;;5064217;28;20029;-64
2024/02/18 07:51:22;;;;;;;26.70;13.35;;;5.20;99.90;;;;;;5062521;28;20492;-65
2024/02/18 07:53:47;;;;;;;33.30;14.25;;;5.30;99.90;;;;;;5062572;28;20052;-64
2024/02/18 07:56:14;;;;;;;28.70;14.25;;;5.30;99.90;;;;;;5062753;28;20028;-64
2024/02/18 07:58:39;;;;;;;31.95;12.98;;;5.30;99.90;;;;;;5064373;28;20040;-64
2024/02/18 08:01:05;;;;;;;21.92;13.07;;;5.30;99.90;;;;;;5064728;28;20059;-64
2024/02/18 08:03:31;;;;;;;25.58;13.60;;;5.30;99.90;;;;;;5062339;28;20116;-64
2024/02/18 08:05:56;;;;;;;27.42;13.18;;;5.30;99.90;;;;;;5062334;28;20036;-65
2024/02/18 08:08:22;;;;;;;23.40;13.52;;;5.40;99.90;;;;;;5062174;28;20239;-65
2024/02/18 08:10:48;;;;;;;27.85;13.73;;;5.40;99.90;;;;;;5061919;28;20017;-64
2024/02/18 08:13:13;;;;;;;22.42;12.73;;;5.40;99.90;;;;;;5060251;28;20357;-64
2024/02/18 08:15:39;;;;;;;24.65;12.88;;;5.50;99.90;;;;;;5062400;28;20032;-65
2024/02/18 08:18:05;;;;;;;27.52;13.65;;;5.50;99.90;;;;;;5060856;28;20029;-65
2024/02/18 08:20:30;;;;;;;27.05;13.55;;;5.50;99.90;;;;;;5060811;28;20029;-65
2024/02/18 08:22:56;;;;;;;23.67;12.48;;;5.60;99.90;;;;;;5061570;28;20028;-64
2024/02/18 08:25:21;;;;;;;18.70;12.30;;;5.60;99.90;;;;;;5062984;28;20107;-64
2024/02/18 08:27:47;;;;;;;19.98;11.55;;;5.70;99.90;;;;;;5064865;28;20067;-65
2024/02/18 08:30:13;;;;;;;23.45;12.70;;;5.70;99.90;;;;;;5064135;28;20496;-64
2024/02/18 08:32:38;;;;;;;20.73;12.80;;;5.80;99.90;;;;;;5061101;28;20111;-65
2024/02/18 08:35:07;;;;;;;21.02;12.68;;;5.80;99.90;;;;;;5061131;28;20028;-64
2024/02/18 08:37:33;;;;;;;21.20;12.23;;;5.90;99.90;;;;;;5057691;28;20119;-64
2024/02/18 08:39:58;;;;;;;20.13;11.15;;;5.90;99.90;;;;;;5059426;28;20095;-64
2024/02/18 08:42:24;;;;;;;20.63;12.63;;;6.00;99.90;;;;;;5060321;28;20024;-64
2024/02/18 08:44:49;;;;;;;21.85;12.68;;;6.00;99.90;;;;;;5061890;28;20099;-64
2024/02/18 08:47:15;;;;;;;24.58;13.13;;;6.10;99.90;;;;;;5078425;28;20036;-65
2024/02/18 08:49:43;;;;;;;19.10;11.73;;;6.10;99.90;;;;;;5059320;28;20552;-64
2024/02/18 08:52:09;;;;;;;22.98;12.30;;;6.20;99.90;;;;;;5060231;28;20029;-64
2024/02/18 08:54:35;;;;;;;25.30;12.93;;;6.20;99.90;;;;;;5062013;28;20037;-64
2024/02/18 08:57:00;;;;;;;26.13;13.65;;;6.20;99.90;;;;;;5059559;28;20025;-65
2024/02/18 08:59:26;;;;;;;23.92;13.35;;;6.30;99.90;;;;;;5059230;28;20024;-64
2024/02/18 09:01:59;;;;;;;22.73;13.27;;;6.30;99.90;;;;;;5061555;28;20035;-64
2024/02/18 09:04:25;;;;;;;22.60;12.45;;;6.30;99.90;;;;;;5057563;28;20024;-65
2024/02/18 09:06:50;;;;;;;25.42;12.88;;;6.30;99.90;;;;;;5063903;28;20082;-64
2024/02/18 09:09:16;;;;;;;26.38;13.98;;;6.40;99.90;;;;;;5063637;28;20480;-65
2024/02/18 09:11:44;;;;;;;24.55;13.00;;;6.40;99.90;;;;;;5063022;28;20373;-65
2024/02/18 09:14:10;;;;;;;23.10;13.20;;;6.40;99.90;;;;;;5062595;28;20107;-64
2024/02/18 09:16:36;;;;;;;22.77;12.35;;;6.50;99.90;;;;;;5060982;28;20130;-65
2024/02/18 09:19:02;;;;;;;22.92;12.80;;;6.50;99.90;;;;;;5060585;28;20028;-64
2024/02/18 09:21:27;;;;;;;20.75;12.60;;;6.50;99.90;;;;;;5060911;28;20564;-65
2024/02/18 09:23:53;;;;;;;22.33;13.27;;;6.50;99.90;;;;;;5062201;28;20028;-64
2024/02/18 09:26:19;;;;;;;25.08;14.45;;;6.60;99.90;;;;;;5062339;28;20089;-64
2024/02/18 09:28:45;;;;;;;25.98;11.88;;;6.60;99.90;;;;;;5062217;28;20112;-65
2024/02/18 09:31:10;;;;;;;25.13;13.73;;;6.70;99.90;;;;;;5061221;28;20111;-64
2024/02/18 09:33:37;;;;;;;23.70;13.75;;;6.70;99.90;;;;;;5059687;28;20063;-64
2024/02/18 09:36:03;;;;;;;21.42;12.52;;;6.70;99.90;;;;;;5061915;28;20045;-64
2024/02/18 09:38:30;;;;;;;22.88;12.38;;;6.80;99.90;;;;;;5060244;28;20031;-64
2024/02/18 09:40:58;;;;;;;21.88;12.95;;;6.80;99.90;;;;;;5063656;28;20046;-64
2024/02/18 09:43:25;;;;;;;25.08;12.63;;;6.90;99.90;;;;;;5059244;28;20108;-64
2024/02/18 09:45:52;;;;;;;23.40;14.00;;;6.90;99.90;;;;;;5056566;28;20035;-64
2024/02/18 09:48:20;;;;;;;22.60;13.13;;;6.90;99.90;;;;;;5059819;28;20404;-65
2024/02/18 09:50:48;;;;;;;23.70;13.52;;;7.00;99.90;;;;;;5060741;28;20133;-64
2024/02/18 09:53:15;;;;;;;20.25;13.13;;;7.00;99.90;;;;;;5063413;28;20020;-64
2024/02/18 09:55:43;;;;;;;28.67;13.73;;;7.00;99.90;;;;;;5062612;28;20420;-65
2024/02/18 09:58:10;;;;;;;25.27;14.32;;;7.10;99.90;;;;;;5061972;28;20495;-65
2024/02/18 10:00:36;;;;;;;23.67;13.93;;;7.20;99.90;;;;;;5062810;28;20075;-64
2024/02/18 10:03:03;;;;;;;23.67;13.38;;;7.20;99.90;;;;;;5062905;28;20040;-64
2024/02/18 10:05:30;;;;;;;21.80;13.05;;;7.30;99.90;;;;;;5059342;28;20439;-64
2024/02/18 10:08:02;;;;;;;25.13;13.23;;;7.30;99.90;;;;;;5053985;28;20013;-64
2024/02/18 10:10:31;;;;;;;24.05;13.77;;;7.30;99.90;;;;;;5060621;28;20395;-64
2024/02/18 10:12:57;;;;;;;23.70;13.80;;;7.40;99.90;;;;;;5059341;28;20059;-64
2024/02/18 10:15:23;;;;;;;24.45;13.15;;;7.40;99.90;;;;;;5059560;28;20044;-65
2024/02/18 10:17:49;;;;;;;24.77;14.20;;;7.50;99.90;;;;;;5061251;28;20565;-65
2024/02/18 10:20:14;;;;;;;25.58;14.60;;;7.50;99.90;;;;;;5061210;28;20036;-65
2024/02/18 10:22:40;;;;;;;21.23;13.20;;;7.60;99.90;;;;;;5061784;28;20020;-65
2024/02/18 10:25:07;;;;;;;24.58;13.55;;;7.60;99.90;;;;;;5062390;28;20477;-65
2024/02/18 10:27:38;;;;;;;24.15;13.85;;;7.60;99.90;;;;;;5061042;28;20024;-65
2024/02/18 10:30:07;;;;;;;19.25;11.60;;;7.60;99.90;;;;;;5063907;28;20408;-65
2024/02/18 10:32:32;;;;;;;25.75;13.90;;;7.60;99.90;;;;;;5058466;28;20029;-65
2024/02/18 10:34:58;;;;;;;23.15;12.68;;;7.70;99.90;;;;;;5063277;28;20028;-65
2024/02/18 10:37:35;;;;;;;22.95;13.75;;;7.70;99.90;;;;;;5062523;28;20037;-66
2024/02/18 10:40:13;;;;;;;22.48;13.60;;;7.70;99.90;;;;;;5062837;28;20040;-65
2024/02/18 10:42:45;;;;;;;23.75;13.32;;;7.70;99.90;;;;;;5063636;28;20112;-65
2024/02/18 10:45:12;;;;;;;20.63;12.13;;;7.70;99.90;;;;;;5067233;28;20068;-65
2024/02/18 10:47:41;;;;;;;16.38;11.45;;;7.70;99.90;;;;;;5063130;28;20081;-65
2024/02/18 10:50:07;;;;;;;18.02;12.27;;;7.80;99.90;;;;;;5078184;28;20024;-65
2024/02/18 10:52:49;;;;;;;21.40;13.88;;;7.80;99.90;;;;;;5061345;28;20031;-65
2024/02/18 10:55:21;;;;;;;23.00;14.35;;;7.90;99.90;;;;;;5080484;28;20024;-65
2024/02/18 10:58:14;;;;;;;18.98;13.15;;;7.90;99.90;;;;;;5063670;28;20071;-64
2024/02/18 11:00:45;;;;;;;20.55;14.15;;;8.00;99.90;;;;;;5062434;28;20059;-64
2024/02/18 11:03:51;;;;;;;21.52;12.75;;;8.00;99.90;;;;;;5062147;28;20025;-65
2024/02/18 11:06:17;;;;;;;21.30;13.07;;;8.10;99.90;;;;;;4988881;28;20624;-64
2024/02/18 11:08:45;;;;;;;20.70;12.75;;;8.10;99.90;;;;;;5003473;28;20584;-65
2024/02/18 11:11:14;;;;;;;25.65;14.57;;;8.10;99.90;;;;;;5032748;28;20032;-65
2024/02/18 11:13:40;;;;;;;21.98;13.20;;;8.10;99.90;;;;;;5079096;28;20029;-64
2024/02/18 11:16:12;;;;;;;25.02;13.82;;;8.20;99.90;;;;;;5064743;28;20129;-65
2024/02/18 11:18:39;;;;;;;21.08;12.70;;;8.20;99.90;;;;;;5064615;28;20028;-64
2024/02/18 11:21:06;;;;;;;18.70;11.57;;;8.20;99.90;;;;;;5065692;28;20063;-65
2024/02/18 11:23:32;;;;;;;24.65;12.55;;;8.30;99.90;;;;;;5064450;28;20033;-64
2024/02/18 11:26:01;;;;;;;22.48;11.57;;;8.30;99.90;;;;;;5066539;28;20028;-64
2024/02/18 11:28:28;;;;;;;16.85;10.90;;;8.30;99.90;;;;;;5064937;28;20019;-64
2024/02/18 11:30:54;;;;;;;16.88;10.82;;;8.30;99.90;;;;;;5062343;28;20401;-66
2024/02/18 11:33:20;;;;;;;15.98;11.13;;;8.30;99.90;;;;;;5065263;28;20182;-64
2024/02/18 11:35:46;;;;;;;15.15;10.98;;;8.30;99.90;;;;;;5065822;28;20028;-64
2024/02/18 11:38:11;;;;;;;15.20;10.90;;;8.30;99.90;;;;;;5064149;28;20396;-64
2024/02/18 11:40:47;;;;;;;18.02;12.35;;;8.30;99.90;;;;;;5062945;28;20078;-65
2024/02/18 11:43:16;;;;;;;14.63;9.60;;;8.40;99.90;;;;;;5064406;28;20146;-64
2024/02/18 11:45:46;;;;;;;19.50;11.45;;;8.40;99.90;;;;;;5064409;28;20588;-65
2024/02/18 11:48:12;;;;;;;17.25;11.10;;;8.40;99.90;;;;;;5063896;28;20031;-64
2024/02/18 11:50:38;;;;;;;11.88;9.35;;;8.30;99.90;;;;;;5064052;28;20119;-64
2024/02/18 11:53:06;;;;;;;15.68;9.23;;;8.30;99.90;;;;;;5064544;28;20112;-64
2024/02/18 11:55:31;;;;;;;17.13;10.85;;;8.30;99.90;;;;;;5061622;28;20115;-64
2024/02/18 11:57:57;;;;;;;17.67;10.60;;;8.40;99.90;;;;;;5061198;28;20115;-63
2024/02/18 12:00:23;;;;;;;15.52;9.38;;;8.30;99.90;;;;;;5063921;28;20037;-65
2024/02/18 12:02:55;;;;;;;19.02;11.35;;;8.40;99.90;;;;;;5065539;28;20020;-64
2024/02/18 12:05:22;;;;;;;17.58;9.52;;;8.40;99.90;;;;;;5064363;28;20029;-64
2024/02/18 12:07:49;;;;;;;15.77;9.88;;;8.50;99.90;;;;;;5063740;28;20569;-64
2024/02/18 12:10:17;;;;;;;15.32;8.55;;;8.50;99.90;;;;;;5064489;28;20028;-63
2024/02/18 12:12:43;;;;;;;13.48;8.13;;;8.60;99.90;;;;;;5064063;28;20020;-64
2024/02/18 12:15:17;;;;;;;19.38;13.75;;;8.60;99.90;;;;;;5064255;28;20069;-63
2024/02/18 12:17:42;;;;;;;27.30;18.25;;;8.60;99.90;;;;;;5064931;28;20531;-64
2024/02/18 12:20:09;;;;;;;16.13;12.23;;;8.60;99.90;;;;;;5064594;28;20032;-64
2024/02/18 12:22:35;;;;;;;14.32;9.65;;;8.60;99.90;;;;;;5064908;28;20035;-64
2024/02/18 12:25:01;;;;;;;13.18;9.27;;;8.70;99.90;;;;;;5062312;28;20013;-64
2024/02/18 12:27:27;;;;;;;16.70;8.02;;;8.70;99.90;;;;;;5064037;28;20021;-64
2024/02/18 12:29:53;;;;;;;13.57;7.00;;;8.70;99.90;;;;;;5063557;28;20066;-65
2024/02/18 12:32:19;;;;;;;10.90;6.65;;;8.70;99.90;;;;;;5063092;28;20028;-64
2024/02/18 12:34:48;;;;;;;10.07;6.53;;;8.70;99.90;;;;;;5063719;28;20037;-63
2024/02/18 12:37:14;;;;;;;11.25;7.03;;;8.70;99.90;;;;;;5064140;28;20040;-64
2024/02/18 12:39:40;;;;;;;10.32;6.80;;;8.70;99.90;;;;;;5060112;28;20029;-63
2024/02/18 12:42:06;;;;;;;8.05;6.53;;;8.70;99.90;;;;;;5064364;28;20588;-64